sensor_id;sensor_type;location;lat;lon;timestamp;temperature;humidity
10864;DHT22;5485;37.558;126.950;2023-06-10T00:01:43;32.80;1.00
10864;DHT22;5485;37.558;126.950;2023-06-10T00:04:15;33.10;1.00
10864;DHT22;5485;37.558;126.950;2023-06-10T00:06:44;32.40;1.00
10864;DHT22;5485;37.558;126.950;2023-06-10T00:09:11;32.70;1.00
10864;DHT22;5485;37.558;126.950;2023-06-10T00:11:39;33.40;1.00
10864;DHT22;5485;37.558;126.950;2023-06-10T00:14:06;33.70;1.00
10864;DHT22;5485;37.558;126.950;2023-06-10T00:16:34;33.50;1.00
10864;DHT22;5485;37.558;126.950;2023-06-10T00:19:03;33.40;1.00
10864;DHT22;5485;37.558;126.950;2023-06-10T00:21:34;33.70;1.00
10864;DHT22;5485;37.558;126.950;2023-06-10T00:24:07;34.40;1.00
10864;DHT22;5485;37.558;126.950;2023-06-10T00:26:40;33.20;1.00
10864;DHT22;5485;37.558;126.950;2023-06-10T00:29:08;33.30;1.00
10864;DHT22;5485;37.558;126.950;2023-06-10T00:31:36;33.60;1.00
10864;DHT22;5485;37.558;126.950;2023-06-10T00:34:04;33.80;1.00
10864;DHT22;5485;37.558;126.950;2023-06-10T00:36:32;34.10;1.00
10864;DHT22;5485;37.558;126.950;2023-06-10T00:38:59;33.90;1.00
10864;DHT22;5485;37.558;126.950;2023-06-10T00:41:26;33.60;1.00
10864;DHT22;5485;37.558;126.950;2023-06-10T00:43:57;32.70;1.00
10864;DHT22;5485;37.558;126.950;2023-06-10T00:46:25;32.90;1.00
10864;DHT22;5485;37.558;126.950;2023-06-10T00:48:53;33.00;1.00
10864;DHT22;5485;37.558;126.950;2023-06-10T00:51:21;33.00;1.00
10864;DHT22;5485;37.558;126.950;2023-06-10T00:53:49;33.60;1.00
10864;DHT22;5485;37.558;126.950;2023-06-10T00:56:16;34.20;1.00
10864;DHT22;5485;37.558;126.950;2023-06-10T00:58:43;33.50;1.00
10864;DHT22;5485;37.558;126.950;2023-06-10T01:01:11;33.10;1.00
10864;DHT22;5485;37.558;126.950;2023-06-10T01:03:39;33.00;1.00
10864;DHT22;5485;37.558;126.950;2023-06-10T01:12:46;33.00;1.00
10864;DHT22;5485;37.558;126.950;2023-06-10T01:14:53;33.30;1.00
10864;DHT22;5485;37.558;126.950;2023-06-10T01:17:20;33.60;1.00
10864;DHT22;5485;37.558;126.950;2023-06-10T01:19:55;33.30;1.00
10864;DHT22;5485;37.558;126.950;2023-06-10T01:22:26;33.20;1.00
10864;DHT22;5485;37.558;126.950;2023-06-10T01:24:58;34.10;1.00
10864;DHT22;5485;37.558;126.950;2023-06-10T01:27:30;33.80;1.00
10864;DHT22;5485;37.558;126.950;2023-06-10T01:30:10;33.20;1.00
10864;DHT22;5485;37.558;126.950;2023-06-10T01:32:43;32.30;1.00
10864;DHT22;5485;37.558;126.950;2023-06-10T01:35:11;31.80;1.00
10864;DHT22;5485;37.558;126.950;2023-06-10T01:37:39;32.50;1.00
10864;DHT22;5485;37.558;126.950;2023-06-10T01:40:10;32.90;1.00
10864;DHT22;5485;37.558;126.950;2023-06-10T01:42:38;33.40;1.00
10864;DHT22;5485;37.558;126.950;2023-06-10T01:45:05;33.40;1.00
10864;DHT22;5485;37.558;126.950;2023-06-10T01:47:32;33.20;1.00
10864;DHT22;5485;37.558;126.950;2023-06-10T01:49:59;32.90;1.00
10864;DHT22;5485;37.558;126.950;2023-06-10T01:52:28;32.70;1.00
10864;DHT22;5485;37.558;126.950;2023-06-10T01:54:55;32.60;1.00
10864;DHT22;5485;37.558;126.950;2023-06-10T01:57:25;32.40;1.00
10864;DHT22;5485;37.558;126.950;2023-06-10T01:59:52;32.10;1.00
10864;DHT22;5485;37.558;126.950;2023-06-10T02:02:19;31.60;1.00
10864;DHT22;5485;37.558;126.950;2023-06-10T02:04:48;32.00;1.00
10864;DHT22;5485;37.558;126.950;2023-06-10T02:07:15;32.20;1.00
10864;DHT22;5485;37.558;126.950;2023-06-10T02:09:42;32.90;1.00
10864;DHT22;5485;37.558;126.950;2023-06-10T02:12:09;32.60;1.00
10864;DHT22;5485;37.558;126.950;2023-06-10T02:14:36;32.50;1.00
10864;DHT22;5485;37.558;126.950;2023-06-10T02:17:04;32.60;1.00
10864;DHT22;5485;37.558;126.950;2023-06-10T02:19:31;32.70;1.00
10864;DHT22;5485;37.558;126.950;2023-06-10T02:21:58;32.90;1.00
10864;DHT22;5485;37.558;126.950;2023-06-10T02:24:31;33.00;1.00
10864;DHT22;5485;37.558;126.950;2023-06-10T02:26:58;33.20;1.00
10864;DHT22;5485;37.558;126.950;2023-06-10T02:29:26;33.00;1.00
10864;DHT22;5485;37.558;126.950;2023-06-10T02:31:53;33.40;1.00
10864;DHT22;5485;37.558;126.950;2023-06-10T02:34:20;33.70;1.00
10864;DHT22;5485;37.558;126.950;2023-06-10T02:36:47;34.00;1.00
10864;DHT22;5485;37.558;126.950;2023-06-10T02:39:17;33.50;1.00
10864;DHT22;5485;37.558;126.950;2023-06-10T02:41:44;32.80;1.00
10864;DHT22;5485;37.558;126.950;2023-06-10T02:44:11;32.70;1.00
10864;DHT22;5485;37.558;126.950;2023-06-10T02:46:38;32.50;1.00
10864;DHT22;5485;37.558;126.950;2023-06-10T02:49:05;32.00;1.00
10864;DHT22;5485;37.558;126.950;2023-06-10T02:51:33;32.00;1.00
10864;DHT22;5485;37.558;126.950;2023-06-10T02:53:59;32.10;1.00
10864;DHT22;5485;37.558;126.950;2023-06-10T02:56:26;32.30;1.00
10864;DHT22;5485;37.558;126.950;2023-06-10T02:58:53;32.10;1.00
10864;DHT22;5485;37.558;126.950;2023-06-10T03:01:20;31.60;1.00
10864;DHT22;5485;37.558;126.950;2023-06-10T03:03:47;31.40;1.00
10864;DHT22;5485;37.558;126.950;2023-06-10T03:06:17;31.10;1.00
10864;DHT22;5485;37.558;126.950;2023-06-10T03:08:45;31.20;1.00
10864;DHT22;5485;37.558;126.950;2023-06-10T03:11:14;31.20;1.00
10864;DHT22;5485;37.558;126.950;2023-06-10T03:13:41;31.60;1.00
10864;DHT22;5485;37.558;126.950;2023-06-10T03:16:08;31.60;1.00
10864;DHT22;5485;37.558;126.950;2023-06-10T03:18:35;31.60;1.00
10864;DHT22;5485;37.558;126.950;2023-06-10T03:21:04;31.60;1.00
10864;DHT22;5485;37.558;126.950;2023-06-10T03:23:35;31.70;1.00
10864;DHT22;5485;37.558;126.950;2023-06-10T03:26:02;31.80;1.00
10864;DHT22;5485;37.558;126.950;2023-06-10T03:28:31;31.80;1.00
10864;DHT22;5485;37.558;126.950;2023-06-10T03:30:58;31.60;1.00
10864;DHT22;5485;37.558;126.950;2023-06-10T03:33:25;31.80;1.00
10864;DHT22;5485;37.558;126.950;2023-06-10T03:35:53;31.60;1.00
10864;DHT22;5485;37.558;126.950;2023-06-10T03:38:19;31.50;1.00
10864;DHT22;5485;37.558;126.950;2023-06-10T03:40:47;31.40;1.00
10864;DHT22;5485;37.558;126.950;2023-06-10T03:43:14;31.60;1.00
10864;DHT22;5485;37.558;126.950;2023-06-10T03:45:41;31.80;1.00
10864;DHT22;5485;37.558;126.950;2023-06-10T03:48:08;31.80;1.00
10864;DHT22;5485;37.558;126.950;2023-06-10T03:50:35;31.60;1.00
10864;DHT22;5485;37.558;126.950;2023-06-10T03:53:03;31.40;1.00
10864;DHT22;5485;37.558;126.950;2023-06-10T03:55:29;31.20;1.00
10864;DHT22;5485;37.558;126.950;2023-06-10T03:57:57;31.30;1.00
10864;DHT22;5485;37.558;126.950;2023-06-10T04:00:24;31.30;1.00
10864;DHT22;5485;37.558;126.950;2023-06-10T04:02:51;31.30;1.00
10864;DHT22;5485;37.558;126.950;2023-06-10T04:05:19;31.10;1.00
10864;DHT22;5485;37.558;126.950;2023-06-10T04:07:49;31.20;1.00
10864;DHT22;5485;37.558;126.950;2023-06-10T04:10:16;31.30;1.00
10864;DHT22;5485;37.558;126.950;2023-06-10T04:12:43;31.30;1.00
10864;DHT22;5485;37.558;126.950;2023-06-10T04:15:10;31.20;1.00
10864;DHT22;5485;37.558;126.950;2023-06-10T04:17:38;31.20;1.00
10864;DHT22;5485;37.558;126.950;2023-06-10T04:20:05;31.00;1.00
10864;DHT22;5485;37.558;126.950;2023-06-10T04:22:33;30.80;1.00
10864;DHT22;5485;37.558;126.950;2023-06-10T04:25:00;30.80;1.00
10864;DHT22;5485;37.558;126.950;2023-06-10T04:27:27;30.90;1.00
10864;DHT22;5485;37.558;126.950;2023-06-10T04:29:54;30.80;1.00
10864;DHT22;5485;37.558;126.950;2023-06-10T04:32:23;30.50;1.00
10864;DHT22;5485;37.558;126.950;2023-06-10T04:34:50;30.60;1.00
10864;DHT22;5485;37.558;126.950;2023-06-10T04:37:17;30.50;1.00
10864;DHT22;5485;37.558;126.950;2023-06-10T04:39:44;30.50;1.00
10864;DHT22;5485;37.558;126.950;2023-06-10T04:42:11;30.50;1.00
10864;DHT22;5485;37.558;126.950;2023-06-10T04:44:41;30.50;1.00
10864;DHT22;5485;37.558;126.950;2023-06-10T04:47:10;30.20;1.00
10864;DHT22;5485;37.558;126.950;2023-06-10T04:49:40;30.10;1.00
10864;DHT22;5485;37.558;126.950;2023-06-10T04:52:07;30.10;1.00
10864;DHT22;5485;37.558;126.950;2023-06-10T04:54:34;29.90;1.00
10864;DHT22;5485;37.558;126.950;2023-06-10T04:57:01;29.70;1.00
10864;DHT22;5485;37.558;126.950;2023-06-10T04:59:30;29.80;1.00
10864;DHT22;5485;37.558;126.950;2023-06-10T05:01:57;29.90;1.00
10864;DHT22;5485;37.558;126.950;2023-06-10T05:04:31;30.10;1.00
10864;DHT22;5485;37.558;126.950;2023-06-10T05:06:58;30.40;1.00
10864;DHT22;5485;37.558;126.950;2023-06-10T05:09:25;30.60;1.00
10864;DHT22;5485;37.558;126.950;2023-06-10T05:11:52;30.80;1.00
10864;DHT22;5485;37.558;126.950;2023-06-10T05:14:20;30.70;1.00
10864;DHT22;5485;37.558;126.950;2023-06-10T05:16:49;30.90;1.00
10864;DHT22;5485;37.558;126.950;2023-06-10T05:19:16;30.90;1.00
10864;DHT22;5485;37.558;126.950;2023-06-10T05:21:44;31.00;1.00
10864;DHT22;5485;37.558;126.950;2023-06-10T05:24:12;31.00;1.00
10864;DHT22;5485;37.558;126.950;2023-06-10T05:26:39;31.00;1.00
10864;DHT22;5485;37.558;126.950;2023-06-10T05:29:07;30.70;1.00
10864;DHT22;5485;37.558;126.950;2023-06-10T05:31:36;30.40;1.00
10864;DHT22;5485;37.558;126.950;2023-06-10T05:34:03;30.30;1.00
10864;DHT22;5485;37.558;126.950;2023-06-10T05:36:30;30.40;1.00
10864;DHT22;5485;37.558;126.950;2023-06-10T05:39:00;30.20;1.00
10864;DHT22;5485;37.558;126.950;2023-06-10T05:41:27;30.10;1.00
10864;DHT22;5485;37.558;126.950;2023-06-10T05:43:53;30.10;1.00
10864;DHT22;5485;37.558;126.950;2023-06-10T05:46:21;30.20;1.00
10864;DHT22;5485;37.558;126.950;2023-06-10T05:48:48;30.10;1.00
10864;DHT22;5485;37.558;126.950;2023-06-10T05:51:15;29.90;1.00
10864;DHT22;5485;37.558;126.950;2023-06-10T05:53:42;29.60;1.00
10864;DHT22;5485;37.558;126.950;2023-06-10T05:56:10;29.30;1.00
10864;DHT22;5485;37.558;126.950;2023-06-10T05:58:37;29.10;1.00
10864;DHT22;5485;37.558;126.950;2023-06-10T06:01:04;29.00;1.00
10864;DHT22;5485;37.558;126.950;2023-06-10T06:03:38;28.80;1.00
10864;DHT22;5485;37.558;126.950;2023-06-10T06:06:05;28.60;1.00
10864;DHT22;5485;37.558;126.950;2023-06-10T06:08:32;28.40;1.00
10864;DHT22;5485;37.558;126.950;2023-06-10T06:10:58;28.30;1.00
10864;DHT22;5485;37.558;126.950;2023-06-10T06:13:25;28.20;1.00
10864;DHT22;5485;37.558;126.950;2023-06-10T06:15:52;28.20;1.00
10864;DHT22;5485;37.558;126.950;2023-06-10T06:18:19;28.30;1.00
10864;DHT22;5485;37.558;126.950;2023-06-10T06:20:46;28.20;1.00
10864;DHT22;5485;37.558;126.950;2023-06-10T06:23:13;28.10;1.00
10864;DHT22;5485;37.558;126.950;2023-06-10T06:25:40;27.50;1.00
10864;DHT22;5485;37.558;126.950;2023-06-10T06:28:07;27.10;1.00
10864;DHT22;5485;37.558;126.950;2023-06-10T06:30:35;26.60;1.00
10864;DHT22;5485;37.558;126.950;2023-06-10T06:33:02;26.50;1.00
10864;DHT22;5485;37.558;126.950;2023-06-10T06:35:33;26.50;1.00
10864;DHT22;5485;37.558;126.950;2023-06-10T06:38:00;26.20;1.00
10864;DHT22;5485;37.558;126.950;2023-06-10T06:40:27;25.80;1.00
10864;DHT22;5485;37.558;126.950;2023-06-10T06:42:54;25.60;1.00
10864;DHT22;5485;37.558;126.950;2023-06-10T06:45:21;25.60;1.00
10864;DHT22;5485;37.558;126.950;2023-06-10T06:47:48;25.50;1.00
10864;DHT22;5485;37.558;126.950;2023-06-10T06:50:18;25.60;1.00
10864;DHT22;5485;37.558;126.950;2023-06-10T06:52:45;25.40;1.00
10864;DHT22;5485;37.558;126.950;2023-06-10T06:55:11;25.20;1.00
10864;DHT22;5485;37.558;126.950;2023-06-10T06:57:38;25.00;1.00
10864;DHT22;5485;37.558;126.950;2023-06-10T07:00:06;24.10;1.00
10864;DHT22;5485;37.558;126.950;2023-06-10T07:02:35;23.20;1.00
10864;DHT22;5485;37.558;126.950;2023-06-10T07:05:02;22.80;1.00
10864;DHT22;5485;37.558;126.950;2023-06-10T07:07:29;22.50;16.10
10864;DHT22;5485;37.558;126.950;2023-06-10T07:09:56;22.50;33.70
10864;DHT22;5485;37.558;126.950;2023-06-10T07:12:23;22.50;17.50
10864;DHT22;5485;37.558;126.950;2023-06-10T07:14:51;22.50;9.80
10864;DHT22;5485;37.558;126.950;2023-06-10T07:17:18;22.70;1.00
10864;DHT22;5485;37.558;126.950;2023-06-10T07:19:45;22.90;1.00
10864;DHT22;5485;37.558;126.950;2023-06-10T07:22:12;23.00;1.00
10864;DHT22;5485;37.558;126.950;2023-06-10T07:24:39;23.20;1.00
10864;DHT22;5485;37.558;126.950;2023-06-10T07:27:07;23.10;1.00
10864;DHT22;5485;37.558;126.950;2023-06-10T07:29:33;23.10;1.00
10864;DHT22;5485;37.558;126.950;2023-06-10T07:32:03;23.10;1.00
10864;DHT22;5485;37.558;126.950;2023-06-10T07:34:30;23.20;1.00
10864;DHT22;5485;37.558;126.950;2023-06-10T07:36:57;23.20;1.00
10864;DHT22;5485;37.558;126.950;2023-06-10T07:39:24;23.30;1.00
10864;DHT22;5485;37.558;126.950;2023-06-10T07:41:51;23.20;1.00
10864;DHT22;5485;37.558;126.950;2023-06-10T07:44:20;23.20;1.00
10864;DHT22;5485;37.558;126.950;2023-06-10T07:46:47;23.10;1.00
10864;DHT22;5485;37.558;126.950;2023-06-10T07:49:14;23.00;1.00
10864;DHT22;5485;37.558;126.950;2023-06-10T07:51:41;23.00;1.00
10864;DHT22;5485;37.558;126.950;2023-06-10T07:54:07;23.10;1.00
10864;DHT22;5485;37.558;126.950;2023-06-10T07:56:34;23.20;1.00
10864;DHT22;5485;37.558;126.950;2023-06-10T07:59:02;23.30;1.00
10864;DHT22;5485;37.558;126.950;2023-06-10T08:01:28;23.30;1.00
10864;DHT22;5485;37.558;126.950;2023-06-10T08:03:57;23.10;1.00
10864;DHT22;5485;37.558;126.950;2023-06-10T08:06:24;22.70;1.00
10864;DHT22;5485;37.558;126.950;2023-06-10T08:08:51;22.80;1.00
10864;DHT22;5485;37.558;126.950;2023-06-10T08:11:18;23.00;1.00
10864;DHT22;5485;37.558;126.950;2023-06-10T08:13:45;23.10;1.00
10864;DHT22;5485;37.558;126.950;2023-06-10T08:16:12;23.00;1.00
10864;DHT22;5485;37.558;126.950;2023-06-10T08:18:39;23.10;1.00
10864;DHT22;5485;37.558;126.950;2023-06-10T08:21:06;23.20;1.00
10864;DHT22;5485;37.558;126.950;2023-06-10T08:23:33;23.40;1.00
10864;DHT22;5485;37.558;126.950;2023-06-10T08:25:59;23.70;1.00
10864;DHT22;5485;37.558;126.950;2023-06-10T08:28:26;23.90;1.00
10864;DHT22;5485;37.558;126.950;2023-06-10T08:30:53;24.10;1.00
10864;DHT22;5485;37.558;126.950;2023-06-10T08:33:20;24.30;1.00
10864;DHT22;5485;37.558;126.950;2023-06-10T08:35:47;24.10;1.00
10864;DHT22;5485;37.558;126.950;2023-06-10T08:38:14;23.90;1.00
10864;DHT22;5485;37.558;126.950;2023-06-10T08:40:42;23.50;1.00
10864;DHT22;5485;37.558;126.950;2023-06-10T08:43:22;23.40;1.00
10864;DHT22;5485;37.558;126.950;2023-06-10T08:45:57;23.40;1.00
10864;DHT22;5485;37.558;126.950;2023-06-10T08:48:29;23.60;1.00
10864;DHT22;5485;37.558;126.950;2023-06-10T08:51:00;23.60;1.00
10864;DHT22;5485;37.558;126.950;2023-06-10T08:53:28;23.70;1.00
10864;DHT22;5485;37.558;126.950;2023-06-10T08:55:59;23.30;1.00
10864;DHT22;5485;37.558;126.950;2023-06-10T08:58:30;23.30;1.00
10864;DHT22;5485;37.558;126.950;2023-06-10T09:00:59;23.20;1.00
10864;DHT22;5485;37.558;126.950;2023-06-10T09:03:26;23.20;1.00
10864;DHT22;5485;37.558;126.950;2023-06-10T09:05:55;23.30;1.00
10864;DHT22;5485;37.558;126.950;2023-06-10T09:08:23;23.20;1.00
10864;DHT22;5485;37.558;126.950;2023-06-10T09:10:50;23.20;1.00
10864;DHT22;5485;37.558;126.950;2023-06-10T09:13:20;23.20;1.00
10864;DHT22;5485;37.558;126.950;2023-06-10T09:15:48;23.20;1.00
10864;DHT22;5485;37.558;126.950;2023-06-10T09:18:20;23.10;1.00
10864;DHT22;5485;37.558;126.950;2023-06-10T09:20:47;22.80;1.00
10864;DHT22;5485;37.558;126.950;2023-06-10T09:23:15;22.80;1.00
10864;DHT22;5485;37.558;126.950;2023-06-10T09:25:42;22.80;1.00
10864;DHT22;5485;37.558;126.950;2023-06-10T09:28:16;22.70;1.00
10864;DHT22;5485;37.558;126.950;2023-06-10T09:30:43;22.60;1.00
10864;DHT22;5485;37.558;126.950;2023-06-10T09:33:12;22.50;1.00
10864;DHT22;5485;37.558;126.950;2023-06-10T09:35:50;22.50;1.00
10864;DHT22;5485;37.558;126.950;2023-06-10T09:38:21;22.50;1.00
10864;DHT22;5485;37.558;126.950;2023-06-10T09:40:50;22.40;1.00
10864;DHT22;5485;37.558;126.950;2023-06-10T09:43:17;22.40;1.00
10864;DHT22;5485;37.558;126.950;2023-06-10T09:45:47;22.20;1.00
10864;DHT22;5485;37.558;126.950;2023-06-10T09:48:15;22.20;1.00
10864;DHT22;5485;37.558;126.950;2023-06-10T09:50:43;22.10;1.00
10864;DHT22;5485;37.558;126.950;2023-06-10T09:53:11;22.10;1.00
10864;DHT22;5485;37.558;126.950;2023-06-10T09:55:39;22.00;1.00
10864;DHT22;5485;37.558;126.950;2023-06-10T09:58:06;21.90;1.00
10864;DHT22;5485;37.558;126.950;2023-06-10T10:00:34;21.80;8.40
10864;DHT22;5485;37.558;126.950;2023-06-10T10:03:01;21.80;18.70
10864;DHT22;5485;37.558;126.950;2023-06-10T10:05:28;21.80;19.40
10864;DHT22;5485;37.558;126.950;2023-06-10T10:07:56;21.70;17.00
10864;DHT22;5485;37.558;126.950;2023-06-10T10:10:23;21.70;25.50
10864;DHT22;5485;37.558;126.950;2023-06-10T10:12:54;21.70;42.60
10864;DHT22;5485;37.558;126.950;2023-06-10T10:15:28;21.70;32.10
10864;DHT22;5485;37.558;126.950;2023-06-10T10:18:06;21.60;25.40
10864;DHT22;5485;37.558;126.950;2023-06-10T10:20:37;21.50;20.60
10864;DHT22;5485;37.558;126.950;2023-06-10T10:23:06;21.50;22.70
10864;DHT22;5485;37.558;126.950;2023-06-10T10:25:42;21.50;31.10
10864;DHT22;5485;37.558;126.950;2023-06-10T10:28:11;21.50;36.20
10864;DHT22;5485;37.558;126.950;2023-06-10T10:30:43;21.50;25.30
10864;DHT22;5485;37.558;126.950;2023-06-10T10:33:19;21.40;33.10
10864;DHT22;5485;37.558;126.950;2023-06-10T10:35:51;21.40;40.00
10864;DHT22;5485;37.558;126.950;2023-06-10T10:38:18;21.40;52.90
10864;DHT22;5485;37.558;126.950;2023-06-10T10:40:47;21.40;67.50
10864;DHT22;5485;37.558;126.950;2023-06-10T10:43:14;21.40;68.00
10864;DHT22;5485;37.558;126.950;2023-06-10T10:45:46;21.30;67.50
10864;DHT22;5485;37.558;126.950;2023-06-10T10:48:26;21.30;67.70
10864;DHT22;5485;37.558;126.950;2023-06-10T10:50:59;21.20;80.00
10864;DHT22;5485;37.558;126.950;2023-06-10T10:53:25;21.20;89.30
10864;DHT22;5485;37.558;126.950;2023-06-10T10:56:14;21.20;92.30
10864;DHT22;5485;37.558;126.950;2023-06-10T10:58:41;21.20;97.70
10864;DHT22;5485;37.558;126.950;2023-06-10T11:01:13;21.10;99.90
10864;DHT22;5485;37.558;126.950;2023-06-10T11:03:44;21.10;99.90
10864;DHT22;5485;37.558;126.950;2023-06-10T11:06:19;21.10;99.90
10864;DHT22;5485;37.558;126.950;2023-06-10T11:08:46;21.10;99.90
10864;DHT22;5485;37.558;126.950;2023-06-10T11:11:21;21.10;99.90
10864;DHT22;5485;37.558;126.950;2023-06-10T11:14:11;21.10;98.10
10864;DHT22;5485;37.558;126.950;2023-06-10T11:16:42;21.20;97.70
10864;DHT22;5485;37.558;126.950;2023-06-10T11:19:35;21.20;91.30
10864;DHT22;5485;37.558;126.950;2023-06-10T11:22:08;21.30;90.20
10864;DHT22;5485;37.558;126.950;2023-06-10T11:24:41;21.30;67.50
10864;DHT22;5485;37.558;126.950;2023-06-10T11:27:19;21.30;67.50
10864;DHT22;5485;37.558;126.950;2023-06-10T11:32:30;21.40;72.20
10864;DHT22;5485;37.558;126.950;2023-06-10T11:35:03;21.40;67.60
10864;DHT22;5485;37.558;126.950;2023-06-10T11:37:31;21.40;67.60
10864;DHT22;5485;37.558;126.950;2023-06-10T11:39:58;21.40;67.60
10864;DHT22;5485;37.558;126.950;2023-06-10T11:42:29;21.40;67.50
10864;DHT22;5485;37.558;126.950;2023-06-10T11:44:56;21.40;67.80
10864;DHT22;5485;37.558;126.950;2023-06-10T11:47:22;21.40;46.00
10864;DHT22;5485;37.558;126.950;2023-06-10T11:49:58;21.40;28.50
10864;DHT22;5485;37.558;126.950;2023-06-10T11:52:32;21.40;13.00
10864;DHT22;5485;37.558;126.950;2023-06-10T11:55:04;21.50;11.10
10864;DHT22;5485;37.558;126.950;2023-06-10T11:57:34;21.50;1.00
10864;DHT22;5485;37.558;126.950;2023-06-10T12:00:06;21.50;1.00
10864;DHT22;5485;37.558;126.950;2023-06-10T12:02:36;21.50;1.00
10864;DHT22;5485;37.558;126.950;2023-06-10T12:05:14;21.50;1.00
10864;DHT22;5485;37.558;126.950;2023-06-10T12:07:40;21.40;1.00
10864;DHT22;5485;37.558;126.950;2023-06-10T12:10:08;21.40;1.00
10864;DHT22;5485;37.558;126.950;2023-06-10T12:12:37;21.40;1.00
10864;DHT22;5485;37.558;126.950;2023-06-10T12:15:05;21.50;1.00
10864;DHT22;5485;37.558;126.950;2023-06-10T12:20:08;21.50;1.00
10864;DHT22;5485;37.558;126.950;2023-06-10T12:22:43;21.50;1.00
10864;DHT22;5485;37.558;126.950;2023-06-10T12:25:11;21.50;1.00
10864;DHT22;5485;37.558;126.950;2023-06-10T12:27:40;21.50;1.00
10864;DHT22;5485;37.558;126.950;2023-06-10T12:30:07;21.50;1.00
10864;DHT22;5485;37.558;126.950;2023-06-10T12:32:41;21.50;1.00
10864;DHT22;5485;37.558;126.950;2023-06-10T12:35:09;21.50;1.00
10864;DHT22;5485;37.558;126.950;2023-06-10T12:38:12;21.50;1.00
10864;DHT22;5485;37.558;126.950;2023-06-10T12:40:40;21.40;1.00
10864;DHT22;5485;37.558;126.950;2023-06-10T12:43:07;21.40;1.70
10864;DHT22;5485;37.558;126.950;2023-06-10T12:45:36;21.40;1.00
10864;DHT22;5485;37.558;126.950;2023-06-10T12:48:17;21.30;4.40
10864;DHT22;5485;37.558;126.950;2023-06-10T12:50:49;21.20;9.20
10864;DHT22;5485;37.558;126.950;2023-06-10T12:53:16;21.10;14.40
10864;DHT22;5485;37.558;126.950;2023-06-10T12:55:43;21.00;23.50
10864;DHT22;5485;37.558;126.950;2023-06-10T12:58:12;21.00;20.00
10864;DHT22;5485;37.558;126.950;2023-06-10T13:00:40;21.00;26.80
10864;DHT22;5485;37.558;126.950;2023-06-10T13:03:08;20.90;29.00
10864;DHT22;5485;37.558;126.950;2023-06-10T13:05:36;21.00;23.90
10864;DHT22;5485;37.558;126.950;2023-06-10T13:08:06;20.80;26.20
10864;DHT22;5485;37.558;126.950;2023-06-10T13:10:33;20.90;26.60
10864;DHT22;5485;37.558;126.950;2023-06-10T13:13:01;20.90;30.60
10864;DHT22;5485;37.558;126.950;2023-06-10T13:15:29;20.80;43.50
10864;DHT22;5485;37.558;126.950;2023-06-10T13:17:55;20.80;66.80
10864;DHT22;5485;37.558;126.950;2023-06-10T13:20:22;20.90;53.80
10864;DHT22;5485;37.558;126.950;2023-06-10T13:22:49;20.80;35.90
10864;DHT22;5485;37.558;126.950;2023-06-10T13:25:16;20.90;39.90
10864;DHT22;5485;37.558;126.950;2023-06-10T13:27:43;20.80;37.50
10864;DHT22;5485;37.558;126.950;2023-06-10T13:30:11;20.80;44.90
10864;DHT22;5485;37.558;126.950;2023-06-10T13:32:38;20.90;37.70
10864;DHT22;5485;37.558;126.950;2023-06-10T13:35:05;21.00;31.10
10864;DHT22;5485;37.558;126.950;2023-06-10T13:37:33;21.00;29.60
10864;DHT22;5485;37.558;126.950;2023-06-10T13:40:01;21.10;25.10
10864;DHT22;5485;37.558;126.950;2023-06-10T13:42:29;21.10;27.30
10864;DHT22;5485;37.558;126.950;2023-06-10T13:44:56;21.00;18.90
10864;DHT22;5485;37.558;126.950;2023-06-10T13:47:23;21.00;22.50
10864;DHT22;5485;37.558;126.950;2023-06-10T13:49:53;21.00;25.90
10864;DHT22;5485;37.558;126.950;2023-06-10T13:52:19;20.90;32.30
10864;DHT22;5485;37.558;126.950;2023-06-10T13:54:46;20.90;48.40
10864;DHT22;5485;37.558;126.950;2023-06-10T13:57:13;20.80;67.10
10864;DHT22;5485;37.558;126.950;2023-06-10T13:59:40;20.70;99.90
10864;DHT22;5485;37.558;126.950;2023-06-10T14:02:12;20.50;99.90
10864;DHT22;5485;37.558;126.950;2023-06-10T14:04:40;20.40;99.90
10864;DHT22;5485;37.558;126.950;2023-06-10T14:07:07;20.20;99.90
10864;DHT22;5485;37.558;126.950;2023-06-10T14:09:33;20.00;99.90
10864;DHT22;5485;37.558;126.950;2023-06-10T14:12:00;19.90;99.90
10864;DHT22;5485;37.558;126.950;2023-06-10T14:14:28;19.90;99.90
10864;DHT22;5485;37.558;126.950;2023-06-10T14:16:56;19.70;99.90
10864;DHT22;5485;37.558;126.950;2023-06-10T14:19:23;19.70;99.90
10864;DHT22;5485;37.558;126.950;2023-06-10T14:21:50;19.70;99.90
10864;DHT22;5485;37.558;126.950;2023-06-10T14:24:19;19.70;99.90
10864;DHT22;5485;37.558;126.950;2023-06-10T14:26:46;19.70;99.90
10864;DHT22;5485;37.558;126.950;2023-06-10T14:29:13;19.70;99.90
10864;DHT22;5485;37.558;126.950;2023-06-10T14:31:47;19.60;99.90
10864;DHT22;5485;37.558;126.950;2023-06-10T14:34:14;19.50;99.90
10864;DHT22;5485;37.558;126.950;2023-06-10T14:36:41;19.50;99.90
10864;DHT22;5485;37.558;126.950;2023-06-10T14:39:08;19.50;99.90
10864;DHT22;5485;37.558;126.950;2023-06-10T14:41:34;19.50;99.90
10864;DHT22;5485;37.558;126.950;2023-06-10T14:44:01;19.60;99.90
10864;DHT22;5485;37.558;126.950;2023-06-10T14:46:28;19.50;99.90
10864;DHT22;5485;37.558;126.950;2023-06-10T14:48:55;19.60;99.90
10864;DHT22;5485;37.558;126.950;2023-06-10T14:51:22;19.60;99.90
10864;DHT22;5485;37.558;126.950;2023-06-10T14:53:49;19.60;99.90
10864;DHT22;5485;37.558;126.950;2023-06-10T14:56:17;19.50;99.90
10864;DHT22;5485;37.558;126.950;2023-06-10T14:58:44;19.50;99.90
10864;DHT22;5485;37.558;126.950;2023-06-10T15:01:10;19.50;99.90
10864;DHT22;5485;37.558;126.950;2023-06-10T15:03:38;19.50;99.90
10864;DHT22;5485;37.558;126.950;2023-06-10T15:06:05;19.50;99.90
10864;DHT22;5485;37.558;126.950;2023-06-10T15:08:34;19.40;1.00
10864;DHT22;5485;37.558;126.950;2023-06-10T15:11:01;19.40;1.00
10864;DHT22;5485;37.558;126.950;2023-06-10T15:13:29;19.30;1.00
10864;DHT22;5485;37.558;126.950;2023-06-10T15:15:55;19.10;1.00
10864;DHT22;5485;37.558;126.950;2023-06-10T15:18:22;19.30;1.00
10864;DHT22;5485;37.558;126.950;2023-06-10T15:20:50;19.20;1.00
10864;DHT22;5485;37.558;126.950;2023-06-10T15:23:17;19.10;1.00
10864;DHT22;5485;37.558;126.950;2023-06-10T15:25:44;19.10;1.00
10864;DHT22;5485;37.558;126.950;2023-06-10T15:28:12;19.10;1.00
10864;DHT22;5485;37.558;126.950;2023-06-10T15:30:42;19.10;1.00
10864;DHT22;5485;37.558;126.950;2023-06-10T15:33:12;19.10;1.00
10864;DHT22;5485;37.558;126.950;2023-06-10T15:35:39;19.10;1.00
10864;DHT22;5485;37.558;126.950;2023-06-10T15:38:06;19.20;1.00
10864;DHT22;5485;37.558;126.950;2023-06-10T15:40:33;19.30;1.00
10864;DHT22;5485;37.558;126.950;2023-06-10T15:43:01;19.20;1.00
10864;DHT22;5485;37.558;126.950;2023-06-10T15:45:28;19.10;1.00
10864;DHT22;5485;37.558;126.950;2023-06-10T15:47:55;19.10;1.00